Terminal Aerodrome Forecast
Issued by NWS

Home | Current Version | Previous Version | Graphics & Text | Print | Product List | Glossary On
Versions: 1 2 3 4 5 6 7 8 9 10 11 12 13 14 15 16 17 18 19 20 21
934
FTUS43 KOAX 180311 AAB
TAFCDR
TAF AMD
KCDR 180311Z 1803/1824 15008KT P6SM VCTS SCT090CB
      TEMPO 1803/1805 VRB20G35KT 4SM TSRA BKN050 OVC080CB
     FM180500 16010KT P6SM BKN090
     FM180700 01006KT P6SM SCT090
     FM181900 08011G22KT P6SM BKN090=

USA.gov is the U.S. government's official web portal to all federal, state and local government web resources and services.